Time;durP1;ratioP1;P1;durP2;ratioP2;P2;SDS_P1;SDS_P2;PMS_P1;PMS_P2;Temp;Humidity;BMP_temperature;BMP_pressure;BME280_temperature;BME280_humidity;BME280_pressure;Samples;Min_cycle;Max_cycle;Signal;HPM_P1;HPM_P2
2022/03/04 00:01:35;;;;;;;8.33;5.27;;;3.00;99.90;;;;;;5035418;28;20440;-57
2022/03/04 00:04:02;;;;;;;8.50;5.33;;;3.00;99.90;;;;;;5034225;28;20444;-62
2022/03/04 00:06:29;;;;;;;6.70;4.70;;;3.00;99.90;;;;;;5033969;28;20483;-56
2022/03/04 00:08:55;;;;;;;8.73;4.80;;;2.90;99.90;;;;;;5033995;28;20476;-57
2022/03/04 00:11:23;;;;;;;7.47;5.97;;;3.00;99.90;;;;;;5034038;28;20444;-52
2022/03/04 00:13:50;;;;;;;10.83;6.87;;;3.00;99.90;;;;;;5035592;28;20444;-60
2022/03/04 00:16:17;;;;;;;8.73;5.93;;;2.90;99.90;;;;;;5041958;28;20518;-56
2022/03/04 00:18:43;;;;;;;8.13;5.60;;;2.90;99.90;;;;;;5056050;28;20896;-54
2022/03/04 00:21:11;;;;;;;12.87;4.90;;;2.90;99.90;;;;;;5058211;28;20535;-53
2022/03/04 00:23:38;;;;;;;8.27;4.90;;;2.90;99.90;;;;;;5056930;28;20502;-53
2022/03/04 00:26:06;;;;;;;8.80;5.33;;;2.90;99.90;;;;;;5064483;28;20451;-54
2022/03/04 00:28:34;;;;;;;11.47;5.03;;;2.90;99.90;;;;;;5064211;28;20537;-56
2022/03/04 00:31:00;;;;;;;6.63;4.60;;;2.90;99.90;;;;;;5062124;28;20504;-57
2022/03/04 00:33:27;;;;;;;12.90;3.93;;;2.90;99.90;;;;;;5057828;28;20532;-60
2022/03/04 00:35:55;;;;;;;8.10;5.40;;;2.90;99.90;;;;;;5057656;28;20796;-55
2022/03/04 00:38:23;;;;;;;11.03;6.40;;;2.80;99.90;;;;;;5057624;28;20435;-60
2022/03/04 00:40:50;;;;;;;8.63;4.40;;;2.80;99.90;;;;;;5057435;28;20462;-66
2022/03/04 00:43:17;;;;;;;8.07;4.80;;;2.80;99.90;;;;;;5058260;28;20459;-55
2022/03/04 00:45:46;;;;;;;12.10;5.70;;;2.80;99.90;;;;;;5057183;28;20471;-56
2022/03/04 00:48:13;;;;;;;7.63;5.33;;;2.80;99.90;;;;;;5057149;28;20483;-56
2022/03/04 00:50:42;;;;;;;7.40;4.23;;;2.80;99.90;;;;;;5057458;28;20447;-53
2022/03/04 00:53:10;;;;;;;7.47;4.67;;;2.90;99.90;;;;;;5058233;28;20542;-56
2022/03/04 00:55:37;;;;;;;9.50;5.03;;;2.80;99.90;;;;;;5056806;28;20440;-53
2022/03/04 00:58:05;;;;;;;7.77;5.00;;;2.90;99.90;;;;;;5056465;28;20464;-57
2022/03/04 01:00:32;;;;;;;6.73;5.50;;;2.90;99.90;;;;;;5056448;28;20524;-56
2022/03/04 01:03:00;;;;;;;10.03;4.50;;;2.80;99.90;;;;;;5057118;28;20443;-59
2022/03/04 01:05:27;;;;;;;11.13;6.13;;;2.90;99.90;;;;;;5056563;28;20424;-59
2022/03/04 01:07:53;;;;;;;22.27;7.03;;;2.90;99.90;;;;;;5056504;28;20518;-57
2022/03/04 01:10:20;;;;;;;12.17;5.50;;;2.90;99.90;;;;;;5056166;28;20475;-56
2022/03/04 01:12:47;;;;;;;16.67;7.50;;;2.90;99.90;;;;;;5056807;28;20931;-57
2022/03/04 01:15:14;;;;;;;14.10;7.00;;;2.80;99.90;;;;;;5057097;28;20817;-55
2022/03/04 01:17:41;;;;;;;12.70;6.00;;;2.90;99.90;;;;;;5056693;28;20427;-55
2022/03/04 01:20:10;;;;;;;23.40;8.43;;;2.90;99.90;;;;;;5056662;28;20500;-52
2022/03/04 01:22:37;;;;;;;22.63;7.47;;;2.80;99.90;;;;;;5056692;28;20513;-62
2022/03/04 01:25:04;;;;;;;15.97;8.90;;;2.80;99.90;;;;;;5057354;28;20455;-57
2022/03/04 01:27:31;;;;;;;14.37;8.30;;;2.80;99.90;;;;;;5056312;28;20511;-55
2022/03/04 01:29:58;;;;;;;34.60;12.90;;;2.90;99.90;;;;;;5056434;28;20431;-56
2022/03/04 01:32:25;;;;;;;26.20;10.50;;;2.90;99.90;;;;;;5056059;28;20459;-56
2022/03/04 01:34:51;;;;;;;26.40;9.77;;;2.90;99.90;;;;;;5057437;28;20532;-56
2022/03/04 01:37:20;;;;;;;27.00;11.57;;;2.90;99.90;;;;;;5056220;28;20944;-55
2022/03/04 01:39:47;;;;;;;30.27;10.30;;;2.80;99.90;;;;;;5056550;28;20475;-59
2022/03/04 01:42:14;;;;;;;33.23;10.73;;;2.80;99.90;;;;;;5057307;28;20505;-54
2022/03/04 01:44:40;;;;;;;25.40;11.07;;;2.80;99.90;;;;;;5056150;28;20447;-56
2022/03/04 01:47:08;;;;;;;32.47;12.20;;;2.90;99.90;;;;;;5055949;28;20486;-57
2022/03/04 01:49:34;;;;;;;31.13;12.30;;;2.90;99.90;;;;;;5056107;28;20521;-55
2022/03/04 01:52:01;;;;;;;22.97;10.60;;;2.90;99.90;;;;;;5057346;28;20467;-54
2022/03/04 01:54:29;;;;;;;32.17;13.30;;;2.90;99.90;;;;;;5056323;28;20431;-55
2022/03/04 01:56:56;;;;;;;27.53;10.93;;;2.90;99.90;;;;;;5056484;28;20447;-55
2022/03/04 01:59:22;;;;;;;27.23;13.23;;;3.30;99.90;;;;;;5056447;28;20501;-53
2022/03/04 02:01:49;;;;;;;42.43;12.90;;;2.90;99.90;;;;;;5055815;28;20443;-56
2022/03/04 02:04:16;;;;;;;33.77;12.13;;;3.20;99.90;;;;;;5055402;28;20475;-57
2022/03/04 02:06:42;;;;;;;27.93;12.73;;;2.90;99.90;;;;;;5057042;28;20505;-57
2022/03/04 02:09:09;;;;;;;39.93;14.10;;;2.90;99.90;;;;;;5055892;28;20482;-56
2022/03/04 02:11:41;;;;;;;43.83;14.33;;;2.90;99.90;;;;;;5056646;28;20471;-57
2022/03/04 02:14:08;;;;;;;40.27;14.00;;;2.90;99.90;;;;;;5055677;28;20799;-58
2022/03/04 02:16:41;;;;;;;30.10;11.67;;;2.90;99.90;;;;;;5055963;28;20471;-59
2022/03/04 02:19:07;;;;;;;36.33;12.00;;;2.90;99.90;;;;;;5055568;28;20428;-55
2022/03/04 02:21:35;;;;;;;37.00;12.83;;;2.90;99.90;;;;;;5055534;28;20458;-55
2022/03/04 02:24:04;;;;;;;36.03;13.27;;;2.90;99.90;;;;;;5055147;28;20900;-59
2022/03/04 02:26:30;;;;;;;35.03;11.60;;;2.90;99.90;;;;;;5055539;28;20600;-58
2022/03/04 02:28:57;;;;;;;25.60;9.17;;;3.00;99.90;;;;;;5055149;28;20495;-59
2022/03/04 02:31:24;;;;;;;30.73;10.87;;;2.90;99.90;;;;;;5055217;28;20447;-59
2022/03/04 02:33:51;;;;;;;34.20;9.60;;;2.90;99.90;;;;;;5055194;28;20451;-57
2022/03/04 02:36:18;;;;;;;22.00;9.97;;;2.90;99.90;;;;;;5055156;28;20462;-60
2022/03/04 02:38:47;;;;;;;37.60;12.07;;;2.90;99.90;;;;;;5054865;28;20780;-58
2022/03/04 02:41:15;;;;;;;30.97;12.80;;;2.90;99.90;;;;;;5054968;28;20537;-58
2022/03/04 02:43:42;;;;;;;29.03;11.60;;;2.90;99.90;;;;;;5055073;28;20509;-58
2022/03/04 02:46:09;;;;;;;30.17;12.10;;;2.90;99.90;;;;;;5054953;28;20509;-56
2022/03/04 02:48:35;;;;;;;30.93;10.57;;;3.00;99.90;;;;;;5055069;28;20479;-56
2022/03/04 02:51:02;;;;;;;30.93;11.77;;;2.90;99.90;;;;;;5055049;28;20448;-59
2022/03/04 02:53:29;;;;;;;23.77;9.67;;;2.90;99.90;;;;;;5055515;28;20533;-60
2022/03/04 02:55:55;;;;;;;35.43;10.77;;;2.90;99.90;;;;;;5054932;28;20447;-59
2022/03/04 02:58:24;;;;;;;33.50;12.43;;;3.00;99.90;;;;;;5054464;28;20823;-55
2022/03/04 03:00:50;;;;;;;24.10;9.53;;;3.00;99.90;;;;;;5054935;28;20440;-62
2022/03/04 03:03:17;;;;;;;19.47;8.17;;;3.00;99.90;;;;;;5054766;28;20819;-58
2022/03/04 03:05:44;;;;;;;36.57;10.90;;;3.00;99.90;;;;;;5054691;28;20447;-55
2022/03/04 03:08:11;;;;;;;26.00;9.70;;;3.10;99.90;;;;;;5054464;28;20825;-62
2022/03/04 03:10:38;;;;;;;23.80;11.73;;;3.10;99.90;;;;;;5054902;28;20518;-57
2022/03/04 03:13:05;;;;;;;29.50;9.10;;;3.10;99.90;;;;;;5055432;28;20451;-60
2022/03/04 03:15:33;;;;;;;22.47;11.33;;;3.10;99.90;;;;;;5055014;28;20528;-60
2022/03/04 03:17:59;;;;;;;21.47;9.53;;;3.10;99.90;;;;;;5055048;28;20981;-58
2022/03/04 03:20:26;;;;;;;24.30;8.10;;;3.10;99.90;;;;;;5054644;28;20489;-60
2022/03/04 03:22:53;;;;;;;20.13;7.77;;;3.10;99.90;;;;;;5054573;28;20431;-58
2022/03/04 03:25:19;;;;;;;23.07;8.53;;;3.10;99.90;;;;;;5054220;28;20443;-58
2022/03/04 03:27:46;;;;;;;27.03;8.77;;;3.20;99.90;;;;;;5054538;28;20475;-66
2022/03/04 03:30:14;;;;;;;17.77;6.80;;;3.10;99.90;;;;;;5054311;28;20470;-60
2022/03/04 03:32:42;;;;;;;29.87;9.90;;;3.20;99.90;;;;;;5054709;28;20458;-59
2022/03/04 03:35:10;;;;;;;16.33;6.80;;;3.20;99.90;;;;;;5054180;28;20821;-59
2022/03/04 03:37:37;;;;;;;13.80;5.57;;;3.20;99.90;;;;;;5054114;28;20463;-57
2022/03/04 03:40:05;;;;;;;22.67;7.50;;;3.30;99.90;;;;;;5054402;28;20455;-56
2022/03/04 03:42:32;;;;;;;14.93;6.53;;;3.30;99.90;;;;;;5053988;28;20471;-58
2022/03/04 03:44:59;;;;;;;18.87;6.83;;;3.30;99.90;;;;;;5054019;28;20514;-57
2022/03/04 03:47:26;;;;;;;23.10;6.03;;;3.30;99.90;;;;;;5054260;28;20876;-59
2022/03/04 03:49:54;;;;;;;10.83;5.17;;;3.30;99.90;;;;;;5058509;28;20509;-60
2022/03/04 03:52:20;;;;;;;23.97;4.83;;;3.40;99.90;;;;;;5058387;28;20545;-58
2022/03/04 03:54:47;;;;;;;16.60;6.93;;;3.40;99.90;;;;;;5058292;28;20447;-59
2022/03/04 03:57:14;;;;;;;9.27;4.70;;;3.40;99.90;;;;;;5058409;28;20585;-58
2022/03/04 03:59:41;;;;;;;14.13;6.93;;;3.40;99.90;;;;;;5058369;28;20451;-57
2022/03/04 04:02:08;;;;;;;16.77;7.33;;;3.40;99.90;;;;;;5058128;28;20479;-62
2022/03/04 04:04:35;;;;;;;21.83;5.40;;;3.40;99.90;;;;;;5058187;28;20447;-67
2022/03/04 04:07:07;;;;;;;12.80;5.60;;;3.40;99.90;;;;;;5057989;28;20481;-58
2022/03/04 04:09:34;;;;;;;32.27;8.80;;;3.40;99.90;;;;;;5058632;28;20471;-59
2022/03/04 04:12:01;;;;;;;10.27;6.70;;;3.40;99.90;;;;;;5057573;28;20532;-58
2022/03/04 04:14:28;;;;;;;12.27;5.00;;;3.40;99.90;;;;;;5057985;28;20447;-59
2022/03/04 04:16:55;;;;;;;13.73;6.03;;;3.50;99.90;;;;;;5057966;28;20478;-53
2022/03/04 04:19:22;;;;;;;9.00;5.70;;;3.50;99.90;;;;;;5057890;28;20462;-57
2022/03/04 04:21:49;;;;;;;12.87;6.30;;;3.50;99.90;;;;;;5057481;28;20947;-59
2022/03/04 04:24:18;;;;;;;12.97;5.23;;;3.60;99.90;;;;;;5057813;28;20431;-59
2022/03/04 04:26:45;;;;;;;11.93;5.70;;;3.60;99.90;;;;;;5057715;28;20536;-59
2022/03/04 04:29:12;;;;;;;13.60;6.77;;;3.60;99.90;;;;;;5058085;28;20761;-57
2022/03/04 04:31:40;;;;;;;19.30;9.20;;;3.60;99.90;;;;;;5057559;28;20451;-60
2022/03/04 04:34:06;;;;;;;19.60;7.87;;;3.60;99.90;;;;;;5057461;28;20924;-60
2022/03/04 04:36:33;;;;;;;15.43;7.30;;;3.50;99.90;;;;;;5057025;28;20446;-59
2022/03/04 04:39:00;;;;;;;16.70;8.17;;;3.50;99.90;;;;;;5057602;28;20427;-55
2022/03/04 04:41:28;;;;;;;20.40;7.07;;;3.50;99.90;;;;;;5057378;28;20435;-61
2022/03/04 04:43:55;;;;;;;18.80;6.50;;;3.60;99.90;;;;;;5057536;28;20475;-57
2022/03/04 04:46:22;;;;;;;11.47;5.93;;;3.50;99.90;;;;;;5057745;28;20532;-63
2022/03/04 04:48:48;;;;;;;16.20;5.60;;;3.50;99.90;;;;;;5057507;28;20480;-57
2022/03/04 04:51:15;;;;;;;13.50;5.23;;;3.50;99.90;;;;;;5057151;28;20455;-58
2022/03/04 04:53:42;;;;;;;14.27;6.23;;;3.50;99.90;;;;;;5057245;28;20517;-57
2022/03/04 04:56:08;;;;;;;16.73;5.73;;;3.50;99.90;;;;;;5057203;28;20474;-57
2022/03/04 04:58:36;;;;;;;15.30;6.17;;;3.50;99.90;;;;;;5057225;28;20521;-57
2022/03/04 05:01:04;;;;;;;13.63;6.60;;;3.50;99.90;;;;;;5056399;28;20451;-56
2022/03/04 05:03:31;;;;;;;15.70;6.67;;;3.40;99.90;;;;;;5056654;28;20464;-60
2022/03/04 05:05:58;;;;;;;12.40;5.20;;;3.40;99.90;;;;;;5057678;28;20447;-58
2022/03/04 05:08:26;;;;;;;20.60;7.50;;;3.30;99.90;;;;;;5056445;28;20862;-56
2022/03/04 05:10:53;;;;;;;19.37;7.00;;;3.20;99.90;;;;;;5056910;28;20455;-60
2022/03/04 05:13:20;;;;;;;18.27;7.97;;;3.20;99.90;;;;;;5056770;28;20528;-60
2022/03/04 05:15:49;;;;;;;14.10;7.97;;;3.10;99.90;;;;;;5056872;28;20451;-56
2022/03/04 05:18:16;;;;;;;18.00;6.40;;;3.10;99.90;;;;;;5056711;28;20554;-55
2022/03/04 05:20:43;;;;;;;16.60;7.20;;;3.00;99.90;;;;;;5056769;28;20776;-59
2022/03/04 05:23:10;;;;;;;17.90;7.53;;;2.90;99.90;;;;;;5056344;28;20522;-55
2022/03/04 05:25:37;;;;;;;17.67;7.43;;;2.90;99.90;;;;;;5056792;28;20958;-59
2022/03/04 05:28:04;;;;;;;10.73;5.43;;;2.90;99.90;;;;;;5056376;28;20529;-59
2022/03/04 05:30:31;;;;;;;20.83;8.67;;;2.90;99.90;;;;;;5056635;28;20446;-58
2022/03/04 05:32:59;;;;;;;20.17;7.07;;;2.90;99.90;;;;;;5056175;28;20489;-60
2022/03/04 05:35:25;;;;;;;17.50;6.67;;;2.90;99.90;;;;;;5056288;28;20459;-57
2022/03/04 05:37:52;;;;;;;12.00;6.60;;;3.00;99.90;;;;;;5056038;28;20955;-59
2022/03/04 05:40:19;;;;;;;14.97;6.90;;;2.90;99.90;;;;;;5056356;28;20835;-56
2022/03/04 05:42:45;;;;;;;17.93;6.43;;;3.00;99.90;;;;;;5056505;28;20467;-62
2022/03/04 05:45:12;;;;;;;14.83;7.17;;;3.00;99.90;;;;;;5056361;28;20513;-59
2022/03/04 05:47:39;;;;;;;7.60;4.90;;;3.10;99.90;;;;;;5056095;28;20485;-57
2022/03/04 05:50:08;;;;;;;10.70;5.00;;;3.10;99.90;;;;;;5055770;28;20482;-53
2022/03/04 05:52:35;;;;;;;16.60;6.30;;;3.10;99.90;;;;;;5056039;28;20475;-58
2022/03/04 05:55:02;;;;;;;17.40;6.20;;;3.20;99.90;;;;;;5056119;28;20435;-58
2022/03/04 05:57:28;;;;;;;21.30;5.70;;;3.20;99.90;;;;;;5055634;28;20516;-56
2022/03/04 05:59:55;;;;;;;17.83;6.87;;;3.30;99.90;;;;;;5055760;28;20428;-58
2022/03/04 06:02:24;;;;;;;16.73;6.13;;;3.30;99.90;;;;;;5056189;28;20447;-64
2022/03/04 06:04:50;;;;;;;12.87;7.83;;;3.30;99.90;;;;;;5055900;28;20444;-58
2022/03/04 06:07:18;;;;;;;11.43;6.90;;;3.40;99.90;;;;;;5055509;28;20912;-59
2022/03/04 06:09:45;;;;;;;18.17;5.40;;;3.40;99.90;;;;;;5055678;28;20475;-58
2022/03/04 06:12:12;;;;;;;18.43;6.97;;;3.40;99.90;;;;;;5054497;28;20982;-59
2022/03/04 06:14:38;;;;;;;12.70;5.77;;;3.50;99.90;;;;;;5055324;28;20917;-60
2022/03/04 06:17:05;;;;;;;13.07;5.93;;;3.60;99.90;;;;;;5055563;28;20447;-60
2022/03/04 06:19:32;;;;;;;15.13;6.80;;;3.60;99.90;;;;;;5055645;28;20772;-58
2022/03/04 06:21:59;;;;;;;12.50;5.40;;;3.70;99.90;;;;;;5056138;28;20451;-61
2022/03/04 06:24:27;;;;;;;9.60;5.10;;;3.70;99.90;;;;;;5066774;28;20489;-55
2022/03/04 06:26:53;;;;;;;8.70;4.23;;;3.70;99.90;;;;;;5076257;28;20447;-52
2022/03/04 06:29:20;;;;;;;8.03;4.27;;;3.70;99.90;;;;;;5075847;28;20463;-48
2022/03/04 06:31:47;;;;;;;10.30;3.53;;;3.80;99.90;;;;;;5076538;28;20473;-55
2022/03/04 06:34:14;;;;;;;8.00;4.80;;;3.80;99.90;;;;;;5076505;28;20523;-51
2022/03/04 06:36:40;;;;;;;7.50;3.77;;;3.80;99.90;;;;;;5075983;28;20435;-59
2022/03/04 06:39:07;;;;;;;6.70;3.10;;;3.80;99.90;;;;;;5076277;28;20455;-54
2022/03/04 06:41:37;;;;;;;7.80;3.97;;;3.80;99.90;;;;;;5058701;28;21119;-59
2022/03/04 06:44:04;;;;;;;6.23;3.40;;;3.80;99.90;;;;;;5054399;28;20485;-58
2022/03/04 06:46:31;;;;;;;5.97;2.97;;;3.80;99.90;;;;;;5054938;28;20443;-58
2022/03/04 06:48:58;;;;;;;7.13;3.70;;;3.80;99.90;;;;;;5054959;28;20487;-61
2022/03/04 06:51:24;;;;;;;6.77;3.50;;;3.90;99.90;;;;;;5055248;28;20512;-58
2022/03/04 06:53:51;;;;;;;4.20;3.03;;;3.90;99.90;;;;;;5054841;28;20479;-56
2022/03/04 06:56:18;;;;;;;6.23;2.70;;;3.90;99.90;;;;;;5055473;28;20780;-57
2022/03/04 06:58:46;;;;;;;6.50;2.23;;;3.90;99.90;;;;;;5054836;28;20468;-59
2022/03/04 07:01:13;;;;;;;6.27;2.30;;;3.90;99.90;;;;;;5054907;28;20458;-58
2022/03/04 07:03:39;;;;;;;4.43;2.67;;;3.90;99.90;;;;;;5054735;28;20467;-56
2022/03/04 07:06:06;;;;;;;4.70;2.90;;;3.90;99.90;;;;;;5054247;28;21111;-59
2022/03/04 07:08:36;;;;;;;5.13;2.30;;;3.90;99.90;;;;;;5054581;28;20467;-57
2022/03/04 07:11:03;;;;;;;3.40;2.30;;;3.90;99.90;;;;;;5054468;28;20501;-56
2022/03/04 07:13:29;;;;;;;3.77;2.30;;;3.90;99.90;;;;;;5054345;28;20812;-58
2022/03/04 07:15:57;;;;;;;5.33;2.97;;;3.90;99.90;;;;;;5055227;28;20440;-64
2022/03/04 07:18:24;;;;;;;4.63;2.40;;;3.90;99.90;;;;;;5054992;28;20439;-57
2022/03/04 07:20:51;;;;;;;3.57;2.40;;;3.90;99.90;;;;;;5054472;28;20435;-63
2022/03/04 07:23:21;;;;;;;8.23;2.60;;;4.00;99.90;;;;;;5054252;28;20497;-60
2022/03/04 07:25:47;;;;;;;4.07;2.10;;;4.00;99.90;;;;;;5054530;28;20833;-57
2022/03/04 07:28:14;;;;;;;5.03;2.30;;;4.00;99.90;;;;;;5054573;28;20474;-59
2022/03/04 07:30:41;;;;;;;8.47;2.47;;;4.00;99.90;;;;;;5054616;28;20478;-58
2022/03/04 07:33:10;;;;;;;2.87;1.80;;;4.00;99.90;;;;;;5054476;28;20451;-58
2022/03/04 07:35:41;;;;;;;3.33;2.30;;;4.00;99.90;;;;;;5053893;28;20537;-59
2022/03/04 07:38:08;;;;;;;2.70;1.87;;;4.00;99.90;;;;;;5055114;28;20427;-56
2022/03/04 07:40:35;;;;;;;3.93;3.53;;;4.00;99.90;;;;;;5054569;28;20916;-57
2022/03/04 07:43:01;;;;;;;3.33;2.33;;;4.00;99.90;;;;;;5053371;28;20517;-57
2022/03/04 07:45:28;;;;;;;8.70;3.03;;;4.10;99.90;;;;;;5054223;28;20573;-57
2022/03/04 07:47:55;;;;;;;5.63;3.00;;;4.10;99.90;;;;;;5053690;28;21031;-56
2022/03/04 07:50:23;;;;;;;5.03;2.43;;;4.10;99.90;;;;;;5054031;28;20556;-58
2022/03/04 07:52:50;;;;;;;5.20;3.10;;;4.20;99.90;;;;;;5054272;28;20475;-60
2022/03/04 07:55:17;;;;;;;5.83;3.53;;;4.20;99.90;;;;;;5053901;28;20458;-57
2022/03/04 07:57:44;;;;;;;5.73;3.40;;;4.30;99.90;;;;;;5054025;28;20478;-57
2022/03/04 08:00:14;;;;;;;13.30;4.10;;;4.30;99.90;;;;;;5054187;28;20447;-57
2022/03/04 08:02:42;;;;;;;8.57;2.83;;;4.30;99.90;;;;;;5054497;28;20529;-58
2022/03/04 08:05:09;;;;;;;12.80;4.07;;;4.40;99.90;;;;;;5054324;28;20554;-58
2022/03/04 08:07:38;;;;;;;8.30;3.90;;;4.40;99.90;;;;;;5054028;28;20525;-59
2022/03/04 08:10:07;;;;;;;12.53;3.90;;;4.40;99.90;;;;;;5053946;28;20544;-57
2022/03/04 08:12:33;;;;;;;8.70;3.90;;;4.40;99.90;;;;;;5053985;28;20562;-57
2022/03/04 08:15:00;;;;;;;11.83;4.20;;;4.50;99.90;;;;;;5054111;28;20447;-57
2022/03/04 08:17:27;;;;;;;7.70;3.50;;;4.50;99.90;;;;;;5053972;28;20443;-59
2022/03/04 08:19:55;;;;;;;9.13;4.50;;;4.50;99.90;;;;;;5055019;28;20498;-57
2022/03/04 08:22:22;;;;;;;3.90;3.00;;;4.60;99.90;;;;;;5054624;28;20447;-58
2022/03/04 08:24:50;;;;;;;4.80;2.93;;;4.70;99.90;;;;;;5053571;28;20510;-60
2022/03/04 08:27:17;;;;;;;5.57;3.30;;;4.70;99.90;;;;;;5053850;28;20458;-54
2022/03/04 08:29:43;;;;;;;5.43;3.00;;;4.80;99.90;;;;;;5053704;28;20495;-60
2022/03/04 08:32:10;;;;;;;4.90;2.50;;;4.90;99.90;;;;;;5053887;28;20427;-59
2022/03/04 08:34:37;;;;;;;7.00;3.17;;;5.00;99.90;;;;;;5053638;28;20481;-58
2022/03/04 08:37:04;;;;;;;9.53;2.60;;;5.10;99.90;;;;;;5057344;28;20458;-58
2022/03/04 08:39:31;;;;;;;5.57;2.60;;;5.30;99.90;;;;;;5057318;28;20439;-57
2022/03/04 08:41:59;;;;;;;5.63;2.47;;;5.50;99.90;;;;;;5056912;28;20952;-60
2022/03/04 08:44:26;;;;;;;3.30;3.00;;;5.50;99.90;;;;;;5057217;28;20443;-56
2022/03/04 08:46:53;;;;;;;3.57;2.30;;;5.50;99.90;;;;;;5070041;28;20479;-55
2022/03/04 08:49:19;;;;;;;3.53;2.50;;;5.50;99.90;;;;;;5071430;28;20490;-55
2022/03/04 08:51:46;;;;;;;3.37;2.50;;;5.50;99.90;;;;;;5071486;28;20450;-55
2022/03/04 08:54:13;;;;;;;2.60;1.77;;;5.40;99.90;;;;;;5070710;28;20440;-56
2022/03/04 08:56:40;;;;;;;3.60;1.73;;;5.40;99.90;;;;;;5071388;28;20458;-59
2022/03/04 08:59:08;;;;;;;3.50;1.93;;;5.30;99.90;;;;;;5071342;28;20983;-60
2022/03/04 09:01:38;;;;;;;4.80;1.70;;;5.30;99.90;;;;;;5070630;28;20459;-59
2022/03/04 09:04:05;;;;;;;4.50;1.93;;;5.30;99.90;;;;;;5070260;28;20467;-59
2022/03/04 09:06:32;;;;;;;10.13;1.63;;;5.30;99.90;;;;;;5070594;28;20482;-57
2022/03/04 09:09:00;;;;;;;7.80;2.20;;;5.20;99.90;;;;;;5068444;28;20815;-54
2022/03/04 09:11:27;;;;;;;4.30;1.90;;;5.90;99.90;;;;;;5069580;28;20454;-56
2022/03/04 09:13:54;;;;;;;3.30;1.80;;;5.70;99.90;;;;;;5070736;28;20541;-56
2022/03/04 09:16:22;;;;;;;3.00;1.67;;;5.60;99.90;;;;;;5070140;28;20487;-56
2022/03/04 09:18:49;;;;;;;3.77;2.40;;;5.50;99.90;;;;;;5067969;28;20494;-58
2022/03/04 09:21:15;;;;;;;3.70;2.40;;;5.40;99.90;;;;;;5068163;28;20731;-56
2022/03/04 09:23:42;;;;;;;4.23;2.50;;;5.30;99.90;;;;;;5068065;28;20489;-56
2022/03/04 09:26:09;;;;;;;4.27;2.47;;;5.30;99.90;;;;;;5066916;28;20471;-55
2022/03/04 09:28:36;;;;;;;3.03;2.20;;;5.30;99.90;;;;;;5067904;28;20938;-58
2022/03/04 09:31:02;;;;;;;3.57;2.50;;;5.30;99.90;;;;;;5067318;28;20491;-55
2022/03/04 09:33:31;;;;;;;5.97;2.73;;;5.30;99.90;;;;;;5067581;28;20503;-58
2022/03/04 09:36:00;;;;;;;9.90;2.97;;;5.50;99.90;;;;;;5067573;28;20478;-57
2022/03/04 09:38:26;;;;;;;4.50;2.50;;;5.50;99.90;;;;;;5067638;28;20423;-57
2022/03/04 09:40:53;;;;;;;3.60;2.37;;;5.70;99.90;;;;;;5067389;28;20466;-57
2022/03/04 09:43:22;;;;;;;4.53;2.27;;;5.70;99.90;;;;;;5067016;28;20449;-57
2022/03/04 09:45:50;;;;;;;3.87;2.50;;;5.80;99.90;;;;;;5066793;28;20534;-57
2022/03/04 09:48:18;;;;;;;4.37;2.90;;;5.80;99.90;;;;;;5066462;28;20450;-59
2022/03/04 09:50:48;;;;;;;3.43;2.10;;;5.90;99.90;;;;;;5066925;28;20490;-59
2022/03/04 09:53:17;;;;;;;3.73;2.10;;;6.00;99.90;;;;;;5067854;28;20439;-59
2022/03/04 09:55:46;;;;;;;4.33;1.87;;;5.90;99.90;;;;;;5066870;28;20462;-59
2022/03/04 09:58:14;;;;;;;3.53;2.17;;;6.10;99.90;;;;;;5067079;28;20476;-57
2022/03/04 10:00:42;;;;;;;5.23;3.07;;;6.20;99.90;;;;;;5066175;28;20509;-59
2022/03/04 10:03:20;;;;;;;4.10;2.60;;;6.30;99.90;;;;;;5067256;28;20499;-57
2022/03/04 10:05:56;;;;;;;6.10;2.10;;;6.50;99.90;;;;;;5065862;28;20850;-54
2022/03/04 10:08:23;;;;;;;3.37;1.60;;;6.60;99.90;;;;;;5065347;28;20470;-50
2022/03/04 10:10:53;;;;;;;4.50;1.80;;;6.80;99.90;;;;;;5064304;28;20486;-56
2022/03/04 10:13:41;;;;;;;6.13;2.50;;;6.80;99.90;;;;;;5065531;28;20471;-53
2022/03/04 10:16:08;;;;;;;4.00;2.20;;;6.80;99.90;;;;;;5065818;28;20450;-57
2022/03/04 10:18:35;;;;;;;3.63;2.67;;;6.70;99.90;;;;;;5064989;28;20471;-51
2022/03/04 10:21:03;;;;;;;6.40;2.93;;;6.50;99.90;;;;;;5067349;28;20467;-58
2022/03/04 10:23:31;;;;;;;4.33;2.43;;;6.40;99.90;;;;;;5076246;28;20450;-57
2022/03/04 10:25:59;;;;;;;8.13;2.00;;;6.40;99.90;;;;;;5075465;28;20445;-57
2022/03/04 10:28:28;;;;;;;3.67;2.27;;;6.30;99.90;;;;;;5062057;28;20440;-61
2022/03/04 10:30:57;;;;;;;3.73;2.07;;;6.30;99.90;;;;;;5055252;28;20483;-58
2022/03/04 10:33:26;;;;;;;3.00;2.27;;;6.20;99.90;;;;;;5055264;28;20772;-59
2022/03/04 10:36:09;;;;;;;3.63;1.77;;;6.10;99.90;;;;;;5055081;28;20544;-60
2022/03/04 10:38:36;;;;;;;7.47;2.27;;;6.00;99.90;;;;;;5055038;28;20419;-59
2022/03/04 10:41:22;;;;;;;5.40;2.10;;;6.00;99.90;;;;;;5055013;28;20540;-59
2022/03/04 10:43:48;;;;;;;3.20;2.53;;;5.90;99.90;;;;;;5055189;28;20439;-58
2022/03/04 10:46:15;;;;;;;4.90;2.20;;;6.00;99.90;;;;;;5054895;28;20521;-59
2022/03/04 10:48:52;;;;;;;4.87;2.60;;;6.00;99.90;;;;;;5055278;28;20512;-59
2022/03/04 10:51:33;;;;;;;3.93;3.33;;;6.00;99.90;;;;;;5054942;28;20878;-58
2022/03/04 10:54:11;;;;;;;5.57;3.30;;;5.90;99.90;;;;;;5055011;28;20462;-60
2022/03/04 10:56:50;;;;;;;5.20;3.20;;;5.80;99.90;;;;;;5054598;28;20532;-59
2022/03/04 10:59:16;;;;;;;5.60;3.00;;;5.80;99.90;;;;;;5054028;28;20892;-57
2022/03/04 11:01:47;;;;;;;6.77;2.70;;;5.80;99.90;;;;;;5054522;28;20479;-60
2022/03/04 11:04:13;;;;;;;5.60;2.80;;;5.80;99.90;;;;;;5054906;28;20447;-61
2022/03/04 11:06:45;;;;;;;3.40;2.70;;;5.70;99.90;;;;;;5054461;28;20478;-57
2022/03/04 11:09:12;;;;;;;3.30;1.97;;;5.80;99.90;;;;;;5054830;28;20454;-57
2022/03/04 11:11:41;;;;;;;1.77;1.67;;;5.90;99.90;;;;;;5054444;28;20552;-59
2022/03/04 11:14:09;;;;;;;5.53;2.13;;;5.90;99.90;;;;;;5054686;28;20915;-56
2022/03/04 11:16:36;;;;;;;3.30;2.20;;;6.00;99.90;;;;;;5054315;28;20482;-55
2022/03/04 11:19:03;;;;;;;3.43;2.33;;;6.00;99.90;;;;;;5054541;28;20802;-58
2022/03/04 11:21:30;;;;;;;3.10;1.77;;;6.20;99.90;;;;;;5054528;28;20443;-58
2022/03/04 11:23:58;;;;;;;4.37;2.07;;;6.20;99.90;;;;;;5054500;28;20447;-58
2022/03/04 11:26:29;;;;;;;3.90;2.00;;;6.20;99.90;;;;;;5053990;28;20443;-59
2022/03/04 11:28:58;;;;;;;2.20;1.57;;;6.20;99.90;;;;;;5054296;28;20423;-60
2022/03/04 11:31:27;;;;;;;1.90;1.50;;;6.30;99.90;;;;;;5054580;28;20522;-61
2022/03/04 11:33:57;;;;;;;4.40;1.30;;;6.30;99.90;;;;;;5054519;28;20458;-59
2022/03/04 11:36:26;;;;;;;2.70;1.20;;;6.30;99.90;;;;;;5054211;28;20989;-59
2022/03/04 11:39:04;;;;;;;1.80;1.30;;;6.20;99.90;;;;;;5054275;28;20478;-61
2022/03/04 11:41:37;;;;;;;2.90;1.23;;;6.20;99.90;;;;;;5054340;28;20440;-58
2022/03/04 11:44:12;;;;;;;3.30;1.20;;;6.30;99.90;;;;;;5054374;28;20463;-61
2022/03/04 11:46:51;;;;;;;2.53;1.47;;;6.30;99.90;;;;;;5054179;28;20454;-60
2022/03/04 11:49:30;;;;;;;2.70;1.97;;;6.60;99.90;;;;;;5053887;28;20471;-59
2022/03/04 11:52:25;;;;;;;3.67;1.33;;;6.70;99.90;;;;;;5054270;28;20481;-59
2022/03/04 11:55:21;;;;;;;4.07;1.87;;;6.90;99.90;;;;;;5053889;28;20475;-60
2022/03/04 11:57:49;;;;;;;2.80;1.77;;;7.10;99.90;;;;;;5054019;28;20466;-60
2022/03/04 12:00:26;;;;;;;4.40;1.63;;;7.20;99.90;;;;;;5054096;28;20463;-60
2022/03/04 12:02:54;;;;;;;3.93;2.23;;;7.30;99.90;;;;;;5054203;28;20485;-63
2022/03/04 12:05:45;;;;;;;4.33;2.97;;;7.30;99.90;;;;;;5054061;28;20459;-58
2022/03/04 12:08:13;;;;;;;4.97;3.53;;;7.20;99.90;;;;;;5054036;28;20424;-57
2022/03/04 12:10:44;;;;;;;6.70;4.30;;;7.20;99.90;;;;;;5064631;28;20509;-51
2022/03/04 12:13:14;;;;;;;6.50;3.87;;;7.10;99.90;;;;;;5078468;28;20435;-58
2022/03/04 12:15:44;;;;;;;7.20;3.10;;;7.00;99.90;;;;;;5073596;28;20463;-59
2022/03/04 12:18:17;;;;;;;7.60;3.73;;;6.80;99.90;;;;;;5068591;28;20472;-57
2022/03/04 12:21:14;;;;;;;5.40;3.87;;;6.70;99.90;;;;;;5059765;28;20467;-62
2022/03/04 12:23:52;;;;;;;3.67;3.30;;;6.60;99.90;;;;;;5059519;28;20431;-60
2022/03/04 12:26:24;;;;;;;4.70;3.37;;;6.60;99.90;;;;;;5058560;28;20561;-59
2022/03/04 12:28:53;;;;;;;3.90;3.50;;;6.80;99.90;;;;;;5058842;28;20490;-56
2022/03/04 12:31:24;;;;;;;5.63;3.40;;;7.00;99.90;;;;;;5057950;28;20804;-59
2022/03/04 12:33:56;;;;;;;4.43;3.27;;;7.20;99.90;;;;;;5058632;28;20493;-57
2022/03/04 12:36:27;;;;;;;4.10;3.77;;;7.20;99.90;;;;;;5057804;28;20539;-57
2022/03/04 12:38:56;;;;;;;4.47;4.07;;;7.30;99.90;;;;;;5058441;28;20752;-58
2022/03/04 12:41:27;;;;;;;7.80;4.27;;;7.30;99.90;;;;;;5058324;28;20463;-57
2022/03/04 12:43:58;;;;;;;5.57;3.97;;;7.30;99.90;;;;;;5057785;28;20888;-57
2022/03/04 12:46:27;;;;;;;5.83;4.53;;;7.20;99.90;;;;;;5058206;28;20451;-62
2022/03/04 12:48:55;;;;;;;6.20;4.57;;;7.20;99.90;;;;;;5057947;28;20432;-56
2022/03/04 12:51:25;;;;;;;5.47;4.90;;;7.10;99.90;;;;;;5057643;28;20490;-59
2022/03/04 12:53:53;;;;;;;5.07;4.53;;;7.10;99.90;;;;;;5057890;28;20443;-58
2022/03/04 12:56:22;;;;;;;5.93;4.60;;;7.00;99.90;;;;;;5057712;28;20452;-58